createdAt,value
2018-04-18T06:07:07.657Z,7.80
2018-04-18T06:09:35.433Z,11.23
2018-04-18T06:12:03.227Z,13.57
2018-04-18T06:14:31.133Z,16.23
2018-04-18T06:16:59.674Z,16.43
2018-04-18T06:19:27.418Z,13.80
2018-04-18T06:21:55.186Z,13.27
2018-04-18T06:24:23.065Z,14.10
2018-04-18T06:26:50.781Z,16.33
2018-04-18T06:29:18.735Z,17.70
2018-04-18T06:31:46.554Z,19.93
2018-04-18T06:34:14.363Z,17.87
2018-04-18T06:36:42.271Z,20.77
2018-04-18T06:39:10.089Z,26.63
2018-04-18T06:41:37.896Z,22.33
2018-04-18T06:44:05.716Z,19.97
2018-04-18T06:46:33.527Z,19.20
2018-04-18T06:49:01.335Z,15.30
2018-04-18T06:51:29.846Z,18.90
2018-04-18T06:53:57.712Z,15.23
2018-04-18T06:56:25.519Z,14.07
2018-04-18T06:58:53.388Z,16.73
2018-04-18T07:01:21.127Z,14.43
2018-04-18T07:03:49.084Z,16.10
2018-04-18T07:06:16.966Z,17.27
2018-04-18T07:08:44.693Z,13.53
2018-04-18T07:11:12.554Z,16.43
2018-04-18T07:13:40.499Z,15.23
2018-04-18T07:16:09.200Z,19.37
2018-04-18T07:18:37.046Z,13.47
2018-04-18T07:21:05.691Z,15.90
2018-04-18T07:23:33.598Z,14.27
2018-04-18T07:26:02.225Z,12.97
2018-04-18T07:28:30.055Z,18.37
2018-04-18T07:30:57.887Z,14.63
2018-04-18T07:33:25.747Z,16.93
2018-04-18T07:35:53.547Z,13.03
2018-04-18T07:38:21.498Z,13.87
2018-04-18T07:40:49.450Z,12.77
2018-04-18T07:43:17.265Z,15.20
2018-04-18T07:45:45.302Z,13.10
2018-04-18T07:48:13.932Z,10.97
2018-04-18T07:50:41.697Z,10.87
2018-04-18T07:53:09.541Z,30.60
2018-04-18T07:55:37.349Z,9.93
2018-04-18T07:58:05.157Z,10.93
2018-04-18T08:00:32.934Z,11.87
2018-04-18T08:03:00.884Z,11.63
2018-04-18T08:05:28.738Z,14.03
2018-04-18T08:07:56.603Z,12.83
2018-04-18T08:10:24.392Z,14.33
2018-04-18T08:12:52.326Z,13.63
2018-04-18T08:15:21.006Z,16.20
2018-04-18T08:17:48.832Z,15.83
2018-04-18T08:20:16.704Z,11.53
2018-04-18T08:22:44.545Z,13.17
2018-04-18T08:25:12.470Z,13.20
2018-04-18T08:27:40.252Z,14.90
2018-04-18T08:30:08.028Z,12.17
2018-04-18T08:32:35.911Z,13.40
2018-04-18T08:35:03.675Z,10.73
2018-04-18T08:37:31.536Z,13.70
2018-04-18T08:39:59.359Z,10.73
2018-04-18T08:42:27.226Z,9.23
2018-04-18T08:44:55.212Z,9.30
2018-04-18T08:47:23.029Z,16.00
2018-04-18T08:49:50.777Z,14.70
2018-04-18T08:52:18.512Z,14.40
2018-04-18T08:54:46.392Z,12.77
2018-04-18T08:57:14.190Z,11.70
2018-04-18T08:59:42.757Z,10.33
2018-04-18T09:02:10.723Z,13.20
2018-04-18T09:04:38.515Z,10.27
2018-04-18T09:07:06.372Z,10.53
2018-04-18T09:09:34.181Z,9.60
2018-04-18T09:12:01.968Z,9.13
2018-04-18T09:14:29.822Z,16.97
2018-04-18T09:16:57.624Z,11.40
2018-04-18T09:19:26.351Z,11.93
2018-04-18T09:21:54.126Z,11.20
2018-04-18T09:24:21.996Z,16.70
2018-04-18T09:26:49.828Z,10.27
2018-04-18T09:29:17.600Z,10.17
2018-04-18T09:31:45.306Z,9.90
2018-04-18T09:34:13.130Z,8.90
2018-04-18T09:36:41.032Z,9.40
2018-04-18T09:39:08.778Z,12.47
2018-04-18T09:41:36.652Z,9.00
2018-04-18T09:44:04.486Z,6.53
2018-04-18T09:46:32.370Z,7.40
2018-04-18T09:49:00.156Z,12.80
2018-04-18T09:51:28.022Z,11.47
2018-04-18T09:53:55.752Z,11.23
2018-04-18T09:56:23.519Z,6.57
2018-04-18T09:58:51.312Z,7.20
2018-04-18T10:01:19.920Z,9.47
2018-04-18T10:03:48.469Z,8.00
2018-04-18T10:06:16.252Z,7.50
2018-04-18T10:08:44.939Z,5.20
2018-04-18T10:11:13.497Z,6.43
2018-04-18T10:13:41.293Z,6.83
2018-04-18T10:16:09.128Z,7.50
2018-04-18T10:18:36.938Z,6.27
2018-04-18T10:21:04.801Z,6.10
2018-04-18T10:23:32.725Z,8.27
2018-04-18T10:26:00.513Z,7.23
2018-04-18T10:28:28.304Z,6.17
2018-04-18T10:30:56.249Z,4.30
2018-04-18T10:33:24.061Z,8.00
2018-04-18T10:35:51.929Z,5.87
2018-04-18T10:38:19.780Z,7.00
2018-04-18T10:40:47.581Z,7.73
2018-04-18T10:43:15.407Z,5.07
2018-04-18T10:45:43.218Z,6.00
2018-04-18T10:48:11.904Z,5.40
2018-04-18T10:50:40.504Z,3.80
2018-04-18T10:53:08.218Z,5.17
2018-04-18T10:55:36.027Z,5.20
2018-04-18T10:58:03.856Z,3.83
2018-04-18T11:00:31.731Z,7.47
2018-04-18T11:02:59.692Z,4.03
2018-04-18T11:05:27.684Z,5.40
2018-04-18T11:07:56.286Z,8.90
2018-04-18T11:10:24.249Z,4.77
2018-04-18T11:12:52.180Z,4.13
2018-04-18T11:15:20.815Z,5.83
2018-04-18T11:17:48.677Z,3.87
2018-04-18T11:20:16.476Z,4.47
2018-04-18T11:22:44.287Z,3.33
2018-04-18T11:25:12.153Z,3.77
2018-04-18T11:27:40.001Z,3.40
2018-04-18T11:30:08.572Z,4.27
2018-04-18T11:32:37.260Z,3.70
2018-04-18T11:35:05.735Z,3.87
2018-04-18T11:37:34.387Z,5.27
2018-04-18T11:40:02.223Z,4.80
2018-04-18T11:42:29.999Z,4.87
2018-04-18T11:44:57.770Z,5.00
2018-04-18T11:47:25.577Z,4.07
2018-04-18T11:49:54.074Z,3.47
2018-04-18T11:52:21.947Z,4.77
2018-04-18T11:54:49.792Z,7.40
2018-04-18T11:57:17.653Z,3.70
2018-04-18T11:59:46.396Z,2.87
2018-04-18T12:02:14.174Z,4.53
2018-04-18T12:04:42.009Z,9.03
2018-04-18T12:07:09.865Z,7.07
2018-04-18T12:09:37.683Z,6.93
2018-04-18T12:12:05.489Z,7.03
2018-04-18T12:14:33.584Z,8.40
2018-04-18T12:17:01.469Z,4.90
2018-04-18T12:19:29.442Z,7.47
2018-04-18T12:21:57.234Z,7.33
2018-04-18T12:24:25.098Z,4.87
2018-04-18T12:26:53.786Z,6.73
2018-04-18T12:29:21.649Z,5.77
2018-04-18T12:31:49.473Z,4.63
2018-04-18T12:34:17.201Z,7.03
2018-04-18T12:36:44.982Z,6.07
2018-04-18T12:39:12.888Z,3.87
2018-04-18T12:41:41.479Z,5.27
2018-04-18T12:44:10.287Z,7.17
2018-04-18T12:46:38.203Z,5.10
2018-04-18T12:52:09.388Z,5.33
2018-04-18T12:54:38.023Z,5.43
2018-04-18T12:57:05.863Z,4.63
2018-04-18T12:59:33.603Z,7.67
2018-04-18T13:02:02.256Z,5.83
2018-04-18T13:04:30.151Z,8.40
2018-04-18T13:06:58.841Z,6.30
2018-04-18T13:09:26.667Z,4.10
2018-04-18T13:11:54.512Z,4.83
2018-04-18T13:14:22.235Z,7.03
2018-04-18T13:16:49.999Z,7.03
2018-04-18T13:19:17.779Z,8.57
2018-04-18T13:21:45.700Z,8.03
2018-04-18T13:24:13.723Z,8.70
2018-04-18T13:26:41.426Z,7.60
2018-04-18T13:29:09.375Z,11.43
2018-04-18T13:31:37.345Z,6.70
2018-04-18T13:34:05.279Z,7.40
2018-04-18T13:36:33.087Z,8.80
2018-04-18T13:39:00.962Z,22.10
2018-04-18T13:41:29.524Z,7.47
2018-04-18T13:43:57.348Z,5.30
2018-04-18T13:46:25.248Z,6.80
2018-04-18T13:48:52.983Z,7.70
2018-04-18T13:51:20.770Z,10.23
2018-04-18T13:53:48.709Z,7.10
2018-04-18T13:56:16.496Z,6.77
2018-04-18T13:58:44.406Z,11.57
2018-04-18T14:01:12.896Z,10.67
2018-04-18T14:03:40.718Z,6.73
2018-04-18T14:06:08.612Z,8.07
2018-04-18T14:08:37.296Z,8.00
2018-04-18T14:11:05.885Z,5.40
2018-04-18T14:13:33.667Z,6.83
2018-04-18T14:16:01.457Z,7.90
2018-04-18T14:18:29.319Z,8.93
2018-04-18T14:20:57.149Z,5.97
2018-04-18T14:23:25.093Z,7.43
2018-04-18T14:25:52.894Z,8.03
2018-04-18T14:28:20.947Z,9.03
2018-04-18T14:30:49.021Z,6.77
2018-04-18T14:33:16.778Z,6.87
2018-04-18T14:35:44.534Z,6.33
2018-04-18T14:38:13.076Z,9.33
2018-04-18T14:40:40.961Z,7.17
2018-04-18T14:43:08.985Z,11.23
2018-04-18T14:45:36.911Z,10.73
2018-04-18T14:48:05.486Z,5.70
2018-04-18T14:50:33.341Z,6.70
2018-04-18T14:53:01.462Z,7.27
2018-04-18T14:55:29.284Z,8.70
2018-04-18T14:57:57.918Z,6.90
2018-04-18T15:00:26.740Z,9.07
2018-04-18T15:02:54.598Z,9.80
2018-04-18T15:05:22.401Z,10.90
2018-04-18T15:07:50.269Z,10.63
2018-04-18T15:10:18.032Z,6.83
2018-04-18T15:12:45.937Z,10.37
2018-04-18T15:15:13.809Z,7.30
2018-04-18T15:17:41.732Z,9.70
2018-04-18T15:20:09.506Z,9.87
2018-04-18T15:22:37.282Z,6.23
2018-04-18T15:25:05.132Z,8.93
2018-04-18T15:27:32.958Z,6.33
2018-04-18T15:30:01.642Z,7.53
2018-04-18T15:32:30.175Z,10.47
2018-04-18T15:34:57.911Z,5.60
2018-04-18T15:37:25.835Z,7.40
2018-04-18T15:39:53.578Z,9.43
2018-04-18T15:42:21.383Z,6.73
2018-04-18T15:44:50.033Z,8.20
2018-04-18T15:47:17.899Z,6.03
2018-04-18T15:49:45.713Z,7.13
2018-04-18T15:52:13.518Z,6.97
2018-04-18T15:54:41.424Z,4.90
2018-04-18T15:57:10.080Z,5.90
2018-04-18T15:59:37.825Z,7.87
2018-04-18T16:02:05.710Z,6.20
2018-04-18T16:04:33.713Z,6.23
2018-04-18T16:07:02.317Z,5.07
2018-04-18T16:09:30.231Z,5.50
2018-04-18T16:11:58.120Z,6.93
2018-04-18T16:14:26.830Z,5.87
2018-04-18T16:16:54.631Z,8.00
2018-04-18T16:19:22.590Z,6.70
2018-04-18T16:21:50.541Z,7.20
2018-04-18T16:24:18.425Z,6.70
2018-04-18T16:26:46.278Z,8.50
2018-04-18T16:29:14.145Z,7.27
2018-04-18T16:31:41.916Z,6.23
2018-04-18T16:34:09.868Z,4.17
2018-04-18T16:36:37.779Z,5.67
2018-04-18T16:39:06.436Z,3.63
2018-04-18T16:41:34.239Z,4.13
2018-04-18T16:44:02.834Z,4.70
2018-04-18T16:46:30.894Z,5.37
2018-04-18T16:48:59.601Z,3.73
2018-04-18T16:51:27.493Z,3.70
2018-04-18T16:53:55.321Z,3.73
2018-04-18T16:56:24.007Z,6.03
2018-04-18T16:58:51.816Z,3.30
2018-04-18T17:01:19.640Z,5.03
2018-04-18T17:03:47.615Z,6.13
2018-04-18T17:06:15.504Z,6.90
2018-04-18T17:08:43.404Z,4.47
2018-04-18T17:11:11.192Z,3.27
2018-04-18T17:13:39.911Z,4.37
2018-04-18T17:16:07.759Z,3.93
2018-04-18T17:18:35.822Z,3.63
2018-04-18T17:21:03.716Z,5.83
2018-04-18T17:23:31.663Z,4.73
2018-04-18T17:25:59.523Z,3.13
2018-04-18T17:28:27.363Z,4.27
2018-04-18T17:30:55.842Z,4.47
2018-04-18T17:33:24.536Z,3.90
2018-04-18T17:35:52.417Z,3.23
2018-04-18T17:38:20.277Z,4.00
2018-04-18T17:40:48.124Z,3.57
2018-04-18T17:43:16.655Z,3.50
2018-04-18T17:45:44.558Z,3.57
2018-04-18T17:48:12.399Z,3.03
2018-04-18T17:50:40.162Z,3.20
2018-04-18T17:53:08.073Z,3.80
2018-04-18T17:55:35.822Z,2.50
2018-04-18T17:58:04.379Z,3.87
2018-04-18T18:00:32.179Z,2.53
2018-04-18T18:03:00.082Z,3.33
2018-04-18T18:05:27.838Z,2.40
2018-04-18T18:07:55.591Z,3.73
2018-04-18T18:10:23.335Z,3.47
2018-04-18T18:12:51.111Z,4.23
2018-04-18T18:15:18.917Z,3.20
2018-04-18T18:17:46.720Z,3.30
2018-04-18T18:20:15.458Z,2.47
2018-04-18T18:22:43.408Z,2.80
2018-04-18T18:25:11.204Z,2.37
2018-04-18T18:27:38.908Z,3.27
2018-04-18T18:30:06.674Z,3.63
2018-04-18T18:32:34.468Z,2.67
2018-04-18T18:35:02.295Z,3.57
2018-04-18T18:37:30.147Z,2.80
2018-04-18T18:39:58.832Z,2.50
2018-04-18T18:42:27.372Z,2.67
2018-04-18T18:44:55.137Z,2.37
2018-04-18T18:47:22.981Z,2.47
2018-04-18T18:49:50.758Z,2.17
2018-04-18T18:52:18.512Z,2.60
2018-04-18T18:54:46.294Z,3.17
2018-04-18T18:57:14.284Z,2.50
2018-04-18T18:59:42.972Z,1.97
2018-04-18T19:02:11.684Z,2.17
2018-04-18T19:04:39.504Z,2.20
2018-04-18T19:07:07.392Z,2.00
2018-04-18T19:09:35.987Z,2.60
2018-04-18T19:12:03.792Z,2.53
2018-04-18T19:14:31.640Z,2.70
2018-04-18T19:16:59.374Z,2.67
2018-04-18T19:19:27.155Z,2.60
2018-04-18T19:21:54.919Z,2.23
2018-04-18T19:24:22.840Z,2.37
2018-04-18T19:26:50.653Z,2.40
2018-04-18T19:29:18.478Z,2.30
2018-04-18T19:31:47.234Z,2.37
2018-04-18T19:34:15.096Z,4.00
2018-04-18T19:36:43.035Z,2.17
2018-04-18T19:39:10.849Z,1.87
2018-04-18T19:41:39.463Z,2.00
2018-04-18T19:44:07.205Z,2.40
2018-04-18T19:46:35.916Z,3.97
2018-04-18T19:49:03.861Z,2.97
2018-04-18T19:51:32.378Z,2.23
2018-04-18T19:54:00.183Z,2.53
2018-04-18T19:56:28.009Z,2.10
2018-04-18T19:58:55.808Z,3.27
2018-04-18T20:01:23.667Z,4.17
2018-04-18T20:03:51.512Z,2.43
2018-04-18T20:06:19.478Z,3.77
2018-04-18T20:08:47.257Z,2.53
2018-04-18T20:11:15.064Z,2.83
2018-04-18T20:13:42.838Z,2.23
2018-04-18T20:16:10.626Z,2.70
2018-04-18T20:18:38.496Z,2.23
2018-04-18T20:21:06.330Z,2.37
2018-04-18T20:23:34.197Z,2.37
2018-04-18T20:26:01.955Z,2.20
2018-04-18T20:28:29.696Z,1.90
2018-04-18T20:30:58.194Z,2.50
2018-04-18T20:33:25.898Z,1.97
2018-04-18T20:35:53.751Z,2.47
2018-04-18T20:38:21.638Z,2.13
2018-04-18T20:40:49.435Z,2.77
2018-04-18T20:43:18.040Z,2.10
2018-04-18T20:45:45.777Z,2.17
2018-04-18T20:48:13.593Z,2.20
2018-04-18T20:50:41.433Z,2.57
2018-04-18T20:53:09.239Z,2.30
2018-04-18T20:55:36.995Z,1.90
2018-04-18T20:58:04.897Z,2.10
2018-04-18T21:00:34.537Z,1.97
2018-04-18T21:03:02.426Z,2.10
2018-04-18T21:05:30.222Z,1.93
2018-04-18T21:07:58.744Z,2.10
2018-04-18T21:10:26.517Z,1.97
2018-04-18T21:12:54.470Z,2.00
2018-04-18T21:15:22.347Z,1.90
2018-04-18T21:17:50.139Z,2.07
2018-04-18T21:20:17.984Z,2.00
2018-04-18T21:22:45.815Z,2.70
2018-04-18T21:25:13.698Z,2.00
2018-04-18T21:27:42.301Z,1.97
2018-04-18T21:30:10.106Z,2.30
2018-04-18T21:32:38.829Z,2.07
2018-04-18T21:35:06.770Z,2.77
2018-04-18T21:37:34.642Z,2.30
2018-04-18T21:40:02.386Z,2.10
2018-04-18T21:42:30.160Z,2.03
2018-04-18T21:44:58.018Z,2.03
2018-04-18T21:47:25.848Z,1.80
2018-04-18T21:49:53.699Z,1.90
2018-04-18T21:52:21.509Z,1.77
2018-04-18T21:54:50.029Z,2.00
2018-04-18T21:57:17.817Z,1.60
2018-04-18T21:59:45.544Z,1.93
2018-04-18T22:04:46.080Z,1.73
2018-04-18T22:07:13.966Z,2.50
2018-04-18T22:09:41.838Z,1.83
2018-04-18T22:12:09.729Z,1.90
2018-04-18T22:14:38.421Z,1.70
2018-04-18T22:17:06.294Z,1.80
2018-04-18T22:19:34.849Z,2.17
2018-04-18T22:22:02.715Z,1.90
2018-04-18T22:24:30.527Z,1.60
2018-04-18T22:26:58.465Z,3.30
2018-04-18T22:29:26.973Z,2.23
2018-04-18T22:31:54.702Z,1.90
2018-04-18T22:34:23.444Z,1.80
2018-04-18T22:36:51.363Z,1.90
2018-04-18T22:39:19.940Z,1.77
2018-04-18T22:41:48.600Z,1.87
2018-04-18T22:44:16.493Z,2.23
2018-04-18T22:46:45.138Z,1.90
2018-04-18T22:49:13.071Z,2.00
2018-04-18T22:51:41.023Z,1.70
2018-04-18T22:54:08.941Z,1.63
2018-04-18T22:56:36.709Z,1.80
2018-04-18T22:59:04.667Z,1.97
2018-04-18T23:01:32.499Z,2.17
2018-04-18T23:04:00.460Z,1.70
2018-04-18T23:06:28.313Z,2.00
2018-04-18T23:08:56.143Z,1.70
2018-04-18T23:11:24.139Z,2.10
2018-04-18T23:13:52.789Z,2.20
2018-04-18T23:16:20.638Z,1.83
2018-04-18T23:18:48.431Z,1.90
2018-04-18T23:21:16.201Z,1.77
2018-04-18T23:23:44.071Z,2.40
2018-04-18T23:26:12.693Z,1.90
2018-04-18T23:28:40.610Z,1.97
2018-04-18T23:31:08.448Z,1.80
2018-04-18T23:33:36.555Z,1.87
2018-04-18T23:36:04.410Z,1.77
2018-04-18T23:38:33.044Z,1.70
2018-04-18T23:41:00.942Z,1.67
2018-04-18T23:43:28.785Z,1.77
2018-04-18T23:45:56.721Z,1.67
2018-04-18T23:48:24.562Z,1.87
2018-04-18T23:50:53.162Z,2.00
2018-04-18T23:53:21.059Z,1.90
2018-04-18T23:55:48.906Z,1.90
2018-04-18T23:58:16.759Z,1.77
